Time;durP1;ratioP1;P1;durP2;ratioP2;P2;SDS_P1;SDS_P2;PMS_P1;PMS_P2;Temp;Humidity;BMP_temperature;BMP_pressure;BME280_temperature;BME280_humidity;BME280_pressure;Samples;Min_cycle;Max_cycle;Signal;HPM_P1;HPM_P2
2023/12/28 00:02:20;;;;;;;1.90;0.50;;;;;;;2.38;100.00;101306.81;104393;1262;73207;-57
2023/12/28 00:04:47;;;;;;;1.70;0.30;;;;;;;2.37;100.00;101306.10;104577;1260;59948;-57
2023/12/28 00:07:14;;;;;;;6.30;0.50;;;;;;;2.37;100.00;101300.61;104359;1259;60100;-57
2023/12/28 00:09:41;;;;;;;1.90;0.40;;;;;;;2.40;100.00;101299.90;104418;1262;73140;-57
2023/12/28 00:12:09;;;;;;;1.00;0.40;;;;;;;2.43;100.00;101297.11;104407;1258;65882;-58
2023/12/28 00:14:36;;;;;;;3.70;0.50;;;;;;;2.47;100.00;101308.66;104447;1260;72715;-57
2023/12/28 00:17:03;;;;;;;1.50;0.50;;;;;;;2.50;100.00;101314.54;104241;1257;59861;-57
2023/12/28 00:19:30;;;;;;;1.50;0.40;;;;;;;2.54;100.00;101321.67;104467;1259;60706;-58
2023/12/28 00:21:58;;;;;;;2.70;0.50;;;;;;;2.56;100.00;101328.23;104341;1259;71845;-58
2023/12/28 00:24:25;;;;;;;2.50;0.60;;;;;;;2.58;100.00;101331.44;104564;1261;67949;-57
2023/12/28 00:26:53;;;;;;;0.80;0.40;;;;;;;2.58;100.00;101332.85;104340;1258;72648;-58
2023/12/28 00:29:20;;;;;;;2.30;0.50;;;;;;;2.57;100.00;101333.38;104294;1257;59622;-59
2023/12/28 00:31:47;;;;;;;2.50;0.50;;;;;;;2.55;100.00;101332.48;104644;1259;59653;-59
2023/12/28 00:34:16;;;;;;;1.70;0.60;;;;;;;2.54;100.00;101325.40;104329;1258;71845;-58
2023/12/28 00:36:44;;;;;;;2.80;0.60;;;;;;;2.51;100.00;101322.34;104409;1260;69149;-57
2023/12/28 00:39:11;;;;;;;2.30;0.60;;;;;;;2.48;100.00;101317.88;104537;1262;72640;-58
2023/12/28 00:41:39;;;;;;;3.40;0.50;;;;;;;2.48;100.00;101317.88;104382;1262;59748;-58
2023/12/28 00:44:09;;;;;;;3.00;0.50;;;;;;;2.51;100.00;101317.73;104234;1260;59672;-58
2023/12/28 00:46:37;;;;;;;1.70;0.30;;;;;;;2.53;100.00;101320.08;104582;1259;73238;-58
2023/12/28 00:49:05;;;;;;;4.10;0.50;;;;;;;2.57;100.00;101322.73;108573;1257;65746;-58
2023/12/28 00:51:34;;;;;;;1.80;0.50;;;;;;;2.61;100.00;101328.83;108531;1260;72694;-57
2023/12/28 00:54:01;;;;;;;3.60;0.50;;;;;;;2.63;100.00;101333.81;107639;1260;59810;-58
2023/12/28 00:56:28;;;;;;;1.40;0.50;;;;;;;2.66;100.00;101339.84;104445;1262;61098;-58
2023/12/28 00:58:56;;;;;;;2.10;0.60;;;;;;;2.67;100.00;101350.85;104367;1260;73991;-58
2023/12/28 01:01:23;;;;;;;2.10;0.60;;;;;;;2.65;100.00;101349.40;104528;1261;66943;-58
2023/12/28 01:03:50;;;;;;;2.50;0.50;;;;;;;2.63;100.00;101340.18;104286;1264;72665;-58
2023/12/28 01:06:19;;;;;;;2.20;0.50;;;;;;;2.61;100.00;101343.17;105292;1259;59862;-57
2023/12/28 01:08:46;;;;;;;4.20;0.70;;;;;;;2.58;100.00;101334.99;104774;1257;60541;-58
2023/12/28 01:11:14;;;;;;;1.00;0.50;;;;;;;2.56;100.00;101329.98;104319;1259;71848;-58
2023/12/28 01:13:41;;;;;;;1.10;0.50;;;;;;;2.54;100.00;101331.59;104366;1260;66064;-56
2023/12/28 01:16:09;;;;;;;2.00;0.50;;;;;;;2.51;100.00;101333.15;104560;1262;72623;-57
2023/12/28 01:18:36;;;;;;;1.20;0.50;;;;;;;2.50;100.00;101329.77;104517;1260;59756;-58
2023/12/28 01:21:04;;;;;;;0.90;0.40;;;;;;;2.50;100.00;101326.58;104587;1259;59497;-58
2023/12/28 01:23:32;;;;;;;2.10;0.40;;;;;;;2.51;100.00;101317.20;104627;1259;73116;-59
2023/12/28 01:25:59;;;;;;;5.40;0.60;;;;;;;2.54;100.00;101317.23;104441;1260;68137;-58
2023/12/28 01:28:27;;;;;;;2.70;0.60;;;;;;;2.57;100.00;101321.67;104567;1260;71093;-59
2023/12/28 01:30:54;;;;;;;2.90;0.40;;;;;;;2.59;100.00;101317.45;104412;1260;60562;-58
2023/12/28 01:33:22;;;;;;;2.60;0.50;;;;;;;2.59;100.00;101313.73;104868;1262;60556;-57
2023/12/28 01:35:49;;;;;;;3.20;0.50;;;;;;;2.58;100.00;101307.86;104772;1258;73835;-58
2023/12/28 01:38:17;;;;;;;2.50;0.60;;;;;;;2.56;100.00;101304.66;104388;1259;67085;-58
2023/12/28 01:40:45;;;;;;;1.10;0.40;;;;;;;2.53;100.00;101297.20;104186;1259;72692;-58
2023/12/28 01:43:13;;;;;;;3.20;0.50;;;;;;;2.49;100.00;101294.50;104775;1260;60601;-57
2023/12/28 01:45:41;;;;;;;2.80;0.60;;;;;;;2.45;100.00;101296.24;104480;1260;60544;-58
2023/12/28 01:48:08;;;;;;;3.50;0.70;;;;;;;2.40;100.00;101298.48;104460;1260;73872;-58
2023/12/28 01:50:36;;;;;;;0.90;0.40;;;;;;;2.36;100.00;101303.24;104385;1259;66248;-57
2023/12/28 01:53:03;;;;;;;1.50;0.40;;;;;;;2.33;100.00;101303.21;104626;1258;71912;-58
2023/12/28 01:55:31;;;;;;;1.10;0.50;;;;;;;2.31;100.00;101298.58;104438;1260;60407;-57
2023/12/28 01:57:58;;;;;;;0.80;0.40;;;;;;;2.27;100.00;101299.61;104385;1260;60581;-59
2023/12/28 02:00:26;;;;;;;3.30;0.50;;;;;;;2.24;100.00;101295.86;104879;1259;74365;-59
2023/12/28 02:02:54;;;;;;;2.00;0.40;;;;;;;2.22;100.00;101294.24;104398;1265;68134;-58
2023/12/28 02:05:21;;;;;;;1.30;0.50;;;;;;;2.21;100.00;101294.78;104385;1260;73205;-57
2023/12/28 02:07:48;;;;;;;3.30;0.40;;;;;;;2.21;100.00;101301.14;104336;1260;60581;-57
2023/12/28 02:10:16;;;;;;;0.90;0.30;;;;;;;2.23;100.00;101303.45;104507;1261;60500;-57
2023/12/28 02:12:43;;;;;;;1.60;0.40;;;;;;;2.26;100.00;101302.44;104439;1262;73892;-57
2023/12/28 02:15:11;;;;;;;1.60;0.40;;;;;;;2.29;100.00;101304.41;104541;1259;66952;-58
2023/12/28 02:17:52;;;;;;;1.40;0.30;;;;;;;2.32;100.00;101312.59;104634;1257;72753;-57
2023/12/28 02:20:20;;;;;;;2.10;0.40;;;;;;;2.34;100.00;101314.55;105196;1256;60624;-57
2023/12/28 02:22:48;;;;;;;1.60;0.40;;;;;;;2.35;100.00;101312.10;104679;1260;60499;-58
2023/12/28 02:25:15;;;;;;;1.20;0.30;;;;;;;2.36;100.00;101313.88;104560;1256;73414;-58
2023/12/28 02:27:46;;;;;;;1.10;0.40;;;;;;;2.34;100.00;101317.21;104633;1257;66808;-58
2023/12/28 02:30:15;;;;;;;2.80;0.30;;;;;;;2.32;100.00;101321.27;106553;1259;71650;-60
2023/12/28 02:32:49;;;;;;;2.10;0.40;;;;;;;2.30;100.00;101327.45;106742;1260;60507;-58
2023/12/28 02:35:31;;;;;;;1.00;0.40;;;;;;;2.25;100.00;101337.85;104384;1260;61697;-58
2023/12/28 02:38:01;;;;;;;2.90;0.50;;;;;;;2.21;100.00;101346.13;104881;1256;72823;-59
2023/12/28 02:40:29;;;;;;;1.80;0.40;;;;;;;2.18;100.00;101341.33;104834;1256;66246;-58
2023/12/28 02:42:56;;;;;;;3.60;1.20;;;;;;;2.15;100.00;101340.39;104812;1257;72647;-60
2023/12/28 02:45:23;;;;;;;3.10;0.40;;;;;;;2.12;100.00;101343.55;104965;1257;60384;-59
2023/12/28 02:47:51;;;;;;;1.70;0.40;;;;;;;2.08;100.00;101343.68;104826;1256;60565;-58
2023/12/28 02:50:18;;;;;;;2.00;0.50;;;;;;;2.03;100.00;101333.71;105037;1256;73900;-58
2023/12/28 02:52:45;;;;;;;2.70;0.30;;;;;;;2.00;100.00;101342.00;104995;1260;66022;-58
2023/12/28 02:55:14;;;;;;;1.70;0.40;;;;;;;1.95;100.00;101345.66;104628;1260;72738;-58
2023/12/28 02:57:43;;;;;;;1.70;0.30;;;;;;;1.91;100.00;101347.03;104666;1262;60818;-57
2023/12/28 03:00:11;;;;;;;1.50;0.40;;;;;;;1.89;100.00;101344.70;106472;1255;62334;-56
2023/12/28 03:02:39;;;;;;;1.30;0.30;;;;;;;1.88;100.00;101340.79;107286;1256;72617;-55
2023/12/28 03:05:07;;;;;;;2.40;0.30;;;;;;;1.90;100.00;101337.80;104756;1257;65510;-55
2023/12/28 03:07:35;;;;;;;3.40;0.40;;;;;;;1.91;100.00;101337.28;106150;1257;71751;-57
2023/12/28 03:10:03;;;;;;;2.00;0.50;;;;;;;1.91;100.00;101337.81;104806;1260;60347;-56
2023/12/28 03:12:30;;;;;;;2.60;0.40;;;;;;;1.93;100.00;101343.33;105060;1256;60684;-57
2023/12/28 03:14:57;;;;;;;2.50;0.50;;;;;;;1.92;100.00;101343.86;106711;1257;72244;-56
2023/12/28 03:17:25;;;;;;;1.80;0.50;;;;;;;1.92;100.00;101348.45;104534;1257;66014;-60
2023/12/28 03:19:52;;;;;;;4.80;0.60;;;;;;;1.90;100.00;101353.91;104482;1261;72770;-55
2023/12/28 03:22:20;;;;;;;0.80;0.50;;;;;;;1.86;100.00;101355.29;104595;1257;60564;-58
2023/12/28 03:24:47;;;;;;;3.30;0.50;;;;;;;1.83;100.00;101351.52;104721;1257;60588;-56
2023/12/28 03:27:15;;;;;;;2.90;0.70;;;;;;;1.79;100.00;101349.88;104575;1262;73790;-59
2023/12/28 03:29:46;;;;;;;2.10;0.40;;;;;;;1.76;100.00;101348.79;104356;1262;67523;-56
2023/12/28 03:32:13;;;;;;;2.80;0.50;;;;;;;1.72;100.00;101349.08;104567;1257;73019;-54
2023/12/28 03:34:41;;;;;;;1.00;0.40;;;;;;;1.67;100.00;101341.94;104498;1260;60357;-57
2023/12/28 03:37:10;;;;;;;1.50;0.50;;;;;;;1.61;100.00;101345.76;104695;1263;60808;-58
2023/12/28 03:39:38;;;;;;;2.10;0.60;;;;;;;1.57;100.00;101342.34;104543;1260;74245;-56
2023/12/28 03:42:05;;;;;;;2.00;0.50;;;;;;;1.53;100.00;101342.64;104518;1260;66423;-56
2023/12/28 03:44:32;;;;;;;3.40;0.50;;;;;;;1.49;100.00;101337.81;104604;1261;72868;-60
2023/12/28 03:47:00;;;;;;;1.50;0.30;;;;;;;1.47;100.00;101334.23;104729;1257;60965;-59
2023/12/28 03:49:27;;;;;;;1.30;0.30;;;;;;;1.46;100.00;101330.16;104667;1261;60415;-55
2023/12/28 03:51:54;;;;;;;4.30;0.50;;;;;;;1.46;100.00;101328.73;104600;1257;72619;-55
2023/12/28 03:54:22;;;;;;;1.50;0.50;;;;;;;1.47;100.00;101331.23;104788;1262;67063;-55
2023/12/28 03:56:49;;;;;;;3.80;0.80;;;;;;;1.47;100.00;101327.16;105919;1256;72626;-59
2023/12/28 03:59:17;;;;;;;4.50;0.60;;;;;;;1.50;100.00;101318.38;104829;1262;60454;-55
2023/12/28 04:01:45;;;;;;;3.10;0.50;;;;;;;1.52;100.00;101324.42;104855;1260;60446;-55
2023/12/28 04:04:12;;;;;;;1.70;0.50;;;;;;;1.53;100.00;101328.84;104791;1260;71678;-55
2023/12/28 04:06:42;;;;;;;2.40;0.60;;;;;;;1.51;100.00;101337.49;105586;1260;66853;-57
2023/12/28 04:09:11;;;;;;;3.10;0.50;;;;;;;1.49;100.00;101340.47;104944;1261;71178;-54
2023/12/28 04:11:39;;;;;;;2.20;0.60;;;;;;;1.48;100.00;101337.79;104375;1256;60553;-55
2023/12/28 04:14:06;;;;;;;1.30;0.40;;;;;;;1.46;100.00;101334.40;104876;1260;60636;-56
2023/12/28 04:16:34;;;;;;;0.90;0.40;;;;;;;1.44;100.00;101331.20;104725;1262;74798;-55
2023/12/28 04:19:02;;;;;;;3.10;0.50;;;;;;;1.39;100.00;101323.88;104624;1260;66923;-56
2023/12/28 04:21:29;;;;;;;2.80;0.50;;;;;;;1.37;100.00;101325.08;104755;1257;73196;-55
2023/12/28 04:23:57;;;;;;;1.50;0.50;;;;;;;1.32;100.00;101331.56;104742;1262;60559;-53
2023/12/28 04:26:26;;;;;;;1.80;0.40;;;;;;;1.28;100.00;101337.50;105960;1256;60553;-55
2023/12/28 04:28:53;;;;;;;0.70;0.40;;;;;;;1.23;100.00;101338.68;104901;1257;72673;-56
2023/12/28 04:31:20;;;;;;;0.70;0.50;;;;;;;1.18;100.00;101339.15;104674;1257;65866;-56
2023/12/28 04:33:48;;;;;;;1.90;0.50;;;;;;;1.13;100.00;101335.52;105104;1259;71353;-55
2023/12/28 04:36:16;;;;;;;2.20;0.40;;;;;;;1.07;100.00;101328.72;104610;1260;60589;-55
2023/12/28 04:38:43;;;;;;;2.70;0.70;;;;;;;1.03;100.00;101336.95;104689;1257;60293;-56
2023/12/28 04:41:11;;;;;;;4.80;0.40;;;;;;;1.00;100.00;101336.04;104444;1263;73816;-57
2023/12/28 04:43:39;;;;;;;1.60;0.40;;;;;;;0.98;100.00;101336.88;104484;1262;67621;-56
2023/12/28 04:46:06;;;;;;;4.80;0.50;;;;;;;0.98;100.00;101334.41;104513;1259;72619;-56
2023/12/28 04:48:34;;;;;;;1.30;0.40;;;;;;;0.98;100.00;101334.94;104614;1259;61374;-56
2023/12/28 04:51:04;;;;;;;2.00;0.40;;;;;;;0.99;100.00;101332.66;105159;1255;60448;-58
2023/12/28 04:53:32;;;;;;;2.20;0.40;;;;;;;1.01;100.00;101337.46;104767;1260;72631;-55
2023/12/28 04:55:59;;;;;;;1.40;0.40;;;;;;;1.02;100.00;101333.59;104429;1261;67087;-54
2023/12/28 04:58:27;;;;;;;3.70;0.50;;;;;;;1.02;100.00;101332.88;104780;1260;72615;-55
2023/12/28 05:00:54;;;;;;;6.40;0.50;;;;;;;1.02;100.00;101339.06;104659;1259;61693;-54
2023/12/28 05:03:21;;;;;;;1.90;0.50;;;;;;;1.00;100.00;101341.52;104556;1259;60550;-54
2023/12/28 05:05:49;;;;;;;1.70;0.60;;;;;;;0.98;100.00;101340.41;104521;1255;74176;-54
2023/12/28 05:08:16;;;;;;;2.10;0.60;;;;;;;0.95;100.00;101337.52;104721;1260;67583;-52
2023/12/28 05:10:44;;;;;;;2.10;0.60;;;;;;;0.92;100.00;101335.02;104645;1257;70200;-54
2023/12/28 05:13:11;;;;;;;3.90;0.70;;;;;;;0.89;100.00;101334.61;104561;1262;60544;-55
2023/12/28 05:15:38;;;;;;;4.20;0.70;;;;;;;0.84;100.00;101328.89;104915;1256;60536;-56
2023/12/28 05:18:08;;;;;;;3.30;0.60;;;;;;;0.79;100.00;101322.61;104737;1259;74397;-57
2023/12/28 05:20:36;;;;;;;3.20;0.80;;;;;;;0.74;100.00;101317.95;104527;1257;67499;-54
2023/12/28 05:23:03;;;;;;;3.10;0.80;;;;;;;0.70;100.00;101312.55;104616;1260;71454;-53
2023/12/28 05:25:31;;;;;;;2.20;0.70;;;;;;;0.65;100.00;101307.19;104494;1260;60847;-56
2023/12/28 05:27:58;;;;;;;6.10;0.70;;;;;;;0.60;100.00;101312.92;104662;1262;60445;-52
2023/12/28 05:30:26;;;;;;;2.70;0.50;;;;;;;0.56;100.00;101315.88;105269;1256;72691;-56
2023/12/28 05:32:54;;;;;;;1.00;0.50;;;;;;;0.53;100.00;101313.87;104540;1261;67182;-56
2023/12/28 05:35:21;;;;;;;2.20;0.40;;;;;;;0.52;100.00;101310.31;104580;1257;72460;-55
2023/12/28 05:37:48;;;;;;;3.40;0.60;;;;;;;0.52;100.00;101309.60;104659;1260;60575;-55
2023/12/28 05:40:16;;;;;;;2.90;0.60;;;;;;;0.53;100.00;101304.15;104695;1260;60494;-54
2023/12/28 05:42:43;;;;;;;3.50;0.70;;;;;;;0.54;100.00;101307.89;104575;1263;73046;-53
2023/12/28 05:45:11;;;;;;;4.20;0.80;;;;;;;0.54;100.00;101312.12;104796;1270;67074;-54
2023/12/28 05:47:38;;;;;;;2.80;0.70;;;;;;;0.55;100.00;101313.20;104728;1256;72756;-54
2023/12/28 05:50:06;;;;;;;2.80;0.70;;;;;;;0.56;100.00;101313.56;104744;1261;60373;-55
2023/12/28 05:52:33;;;;;;;1.70;0.60;;;;;;;0.56;100.00;101313.75;104555;1259;61197;-54
2023/12/28 05:55:01;;;;;;;4.00;0.60;;;;;;;0.55;100.00;101309.32;104775;1260;71942;-54
2023/12/28 05:57:30;;;;;;;2.20;0.70;;;;;;;0.53;100.00;101302.90;104616;1257;67136;-54
2023/12/28 05:59:58;;;;;;;3.00;0.90;;;;;;;0.50;100.00;101296.88;108505;1257;71434;-52
2023/12/28 06:02:25;;;;;;;3.30;0.80;;;;;;;0.48;100.00;101293.66;104737;1262;60179;-53
2023/12/28 06:04:52;;;;;;;1.80;0.80;;;;;;;0.46;100.00;101295.04;104593;1262;60423;-51
2023/12/28 06:07:20;;;;;;;3.20;0.60;;;;;;;0.45;100.00;101298.35;104482;1260;72641;-51
2023/12/28 06:09:47;;;;;;;2.60;0.60;;;;;;;0.44;100.00;101290.58;104719;1263;65648;-54
2023/12/28 06:12:15;;;;;;;2.40;0.50;;;;;;;0.45;100.00;101294.83;104522;1269;73761;-54
2023/12/28 06:14:42;;;;;;;2.20;0.60;;;;;;;0.47;100.00;101304.58;108838;1258;59690;-52
2023/12/28 06:17:09;;;;;;;2.90;0.50;;;;;;;0.50;100.00;101308.16;108745;1257;60476;-52
2023/12/28 06:19:36;;;;;;;3.80;0.60;;;;;;;0.55;100.00;101306.67;108868;1255;75491;-54
2023/12/28 06:22:04;;;;;;;2.10;0.60;;;;;;;0.60;100.00;101310.27;108767;1256;65513;-54
2023/12/28 06:24:31;;;;;;;8.40;0.80;;;;;;;0.65;100.00;101306.67;108822;1257;71142;-52
2023/12/28 06:26:58;;;;;;;4.60;0.80;;;;;;;0.70;100.00;101311.69;108667;1256;58411;-52
2023/12/28 06:29:26;;;;;;;3.30;0.70;;;;;;;0.75;100.00;101310.89;108872;1259;60265;-52
2023/12/28 06:31:53;;;;;;;5.80;0.80;;;;;;;0.79;100.00;101317.65;108760;1255;73808;-54
2023/12/28 06:34:20;;;;;;;2.70;1.00;;;;;;;0.82;100.00;101321.08;108765;1257;67202;-52
2023/12/28 06:36:48;;;;;;;2.80;0.90;;;;;;;0.84;100.00;101326.05;107016;1260;71424;-52
2023/12/28 06:39:15;;;;;;;3.50;1.00;;;;;;;0.87;100.00;101331.57;104574;1257;60549;-53
2023/12/28 06:41:47;;;;;;;7.90;1.30;;;;;;;0.89;100.00;101339.21;104440;1257;60604;-52
2023/12/28 06:44:15;;;;;;;2.20;1.00;;;;;;;0.91;100.00;101342.42;108955;1257;76390;-52
2023/12/28 06:46:42;;;;;;;4.70;1.40;;;;;;;0.91;100.00;101337.84;108724;1260;66713;-54
2023/12/28 06:49:09;;;;;;;8.30;3.20;;;;;;;0.91;100.00;101331.13;108861;1254;71216;-54
2023/12/28 06:51:38;;;;;;;10.40;6.00;;;;;;;0.92;100.00;101336.08;107978;1260;60572;-51
2023/12/28 06:54:05;;;;;;;15.50;9.50;;;;;;;0.93;100.00;101342.47;104584;1260;60593;-51
2023/12/28 06:56:32;;;;;;;27.30;13.30;;;;;;;0.97;100.00;101354.00;104612;1260;72580;-50
2023/12/28 06:59:00;;;;;;;18.80;9.00;;;;;;;1.01;100.00;101361.50;104527;1260;65941;-53
2023/12/28 07:01:27;;;;;;;16.50;8.40;;;;;;;1.07;100.00;101368.32;104441;1261;71250;-51
2023/12/28 07:03:54;;;;;;;9.80;5.70;;;;;;;1.13;100.00;101371.41;108606;1260;58807;-52
2023/12/28 07:06:22;;;;;;;7.90;3.40;;;;;;;1.18;100.00;101366.02;104628;1257;60601;-53
2023/12/28 07:08:49;;;;;;;7.50;2.40;;;;;;;1.22;100.00;101365.01;104603;1257;72509;-51
2023/12/28 07:11:17;;;;;;;8.60;1.90;;;;;;;1.27;100.00;101379.23;104507;1256;67491;-52
2023/12/28 07:13:44;;;;;;;9.70;2.70;;;;;;;1.32;100.00;101393.10;104648;1260;72713;-53
2023/12/28 07:16:12;;;;;;;6.80;3.30;;;;;;;1.35;100.00;101400.05;104782;1260;60485;-50
2023/12/28 07:18:39;;;;;;;6.40;1.80;;;;;;;1.38;100.00;101407.16;104412;1261;60460;-51
2023/12/28 07:21:10;;;;;;;8.70;2.40;;;;;;;1.39;100.00;101414.80;105575;1259;74324;-53
2023/12/28 07:23:38;;;;;;;7.50;2.30;;;;;;;1.40;100.00;101416.92;104770;1262;68005;-51
2023/12/28 07:26:05;;;;;;;6.90;2.00;;;;;;;1.40;100.00;101409.84;104590;1256;71546;-53
2023/12/28 07:28:33;;;;;;;6.10;2.30;;;;;;;1.41;100.00;101406.16;104381;1257;61645;-51
2023/12/28 07:31:00;;;;;;;5.90;1.80;;;;;;;1.42;100.00;101406.88;104852;1254;60493;-51
2023/12/28 07:33:28;;;;;;;6.20;1.60;;;;;;;1.41;100.00;101415.01;104675;1258;72595;-51
2023/12/28 07:35:58;;;;;;;7.30;1.90;;;;;;;1.42;100.00;101420.67;104571;1262;65843;-55
2023/12/28 07:38:26;;;;;;;7.60;1.40;;;;;;;1.42;100.00;101425.11;105910;1257;73182;-52
2023/12/28 07:40:53;;;;;;;7.30;1.90;;;;;;;1.43;100.00;101412.92;104549;1260;60576;-52
2023/12/28 07:43:21;;;;;;;8.20;1.50;;;;;;;1.45;100.00;101407.28;104632;1257;62732;-52
2023/12/28 07:45:48;;;;;;;9.70;2.10;;;;;;;1.50;100.00;101401.16;104662;1260;73901;-54
2023/12/28 07:48:15;;;;;;;8.40;1.80;;;;;;;1.58;100.00;101411.72;104580;1261;67129;-53
2023/12/28 07:50:43;;;;;;;7.80;2.50;;;;;;;1.67;100.00;101417.68;104618;1260;73185;-51
2023/12/28 07:53:11;;;;;;;7.70;2.20;;;;;;;1.77;100.00;101421.16;104825;1257;60434;-53
2023/12/28 07:55:39;;;;;;;6.80;1.70;;;;;;;1.86;100.00;101434.23;104565;1257;60572;-51
2023/12/28 07:58:06;;;;;;;3.40;1.50;;;;;;;1.95;100.00;101439.14;104627;1260;73003;-51
2023/12/28 08:00:34;;;;;;;7.40;2.00;;;;;;;2.02;100.00;101447.73;104843;1259;67488;-54
2023/12/28 08:03:01;;;;;;;5.70;1.90;;;;;;;2.06;100.00;101449.38;104490;1261;71265;-51
2023/12/28 08:05:29;;;;;;;5.30;1.80;;;;;;;2.11;100.00;101447.15;104662;1256;60562;-55
2023/12/28 08:07:56;;;;;;;5.00;2.30;;;;;;;2.15;100.00;101454.08;104678;1261;59704;-52
2023/12/28 08:10:24;;;;;;;4.80;1.50;;;;;;;2.19;100.00;101455.21;104837;1257;73326;-52
2023/12/28 08:12:51;;;;;;;2.90;1.50;;;;;;;2.22;100.00;101456.66;104393;1260;66957;-51
2023/12/28 08:15:19;;;;;;;4.80;1.70;;;;;;;2.23;100.00;101447.10;104580;1260;71421;-52
2023/12/28 08:17:46;;;;;;;3.40;1.20;;;;;;;2.23;100.00;101438.79;104488;1260;62160;-54
2023/12/28 08:20:14;;;;;;;4.50;1.70;;;;;;;2.23;100.00;101431.70;104435;1257;60588;-52
2023/12/28 08:22:41;;;;;;;4.60;1.50;;;;;;;2.24;100.00;101433.84;104677;1257;74998;-52
2023/12/28 08:25:09;;;;;;;3.50;1.00;;;;;;;2.27;100.00;101435.48;104717;1260;67480;-52
2023/12/28 08:27:37;;;;;;;3.40;1.40;;;;;;;2.28;100.00;101433.91;105751;1259;72655;-55
2023/12/28 08:30:06;;;;;;;5.40;1.00;;;;;;;2.31;100.00;101436.93;104445;1258;60999;-53
2023/12/28 08:32:34;;;;;;;4.30;1.50;;;;;;;2.36;100.00;101440.36;105367;1260;60448;-55
2023/12/28 08:35:02;;;;;;;5.30;2.30;;;;;;;2.40;100.00;101441.45;104652;1256;74366;-53
2023/12/28 08:37:31;;;;;;;5.90;1.30;;;;;;;2.44;100.00;101442.41;106417;1257;65197;-56
2023/12/28 08:39:58;;;;;;;4.80;1.20;;;;;;;2.48;100.00;101438.19;104614;1257;73095;-55
2023/12/28 08:42:25;;;;;;;2.90;1.20;;;;;;;2.51;100.00;101438.94;104418;1258;60829;-54
2023/12/28 08:44:53;;;;;;;8.40;1.20;;;;;;;2.54;100.00;101445.91;104543;1260;60903;-52
2023/12/28 08:47:20;;;;;;;3.70;1.10;;;;;;;2.56;100.00;101435.98;104675;1261;75218;-54
2023/12/28 08:49:48;;;;;;;2.60;1.10;;;;;;;2.58;100.00;101435.30;105229;1257;65555;-55
2023/12/28 08:52:15;;;;;;;6.50;1.40;;;;;;;2.60;100.00;101436.38;108570;1258;71778;-54
2023/12/28 08:54:42;;;;;;;6.30;1.70;;;;;;;2.61;100.00;101433.39;105357;1257;62176;-55
2023/12/28 08:57:10;;;;;;;7.00;2.20;;;;;;;2.61;100.00;101429.33;104527;1257;60451;-55
2023/12/28 08:59:37;;;;;;;4.30;1.30;;;;;;;2.62;100.00;101428.45;104728;1257;72664;-54
2023/12/28 09:02:04;;;;;;;5.50;1.20;;;;;;;2.62;100.00;101418.53;104429;1258;65878;-54
2023/12/28 09:04:32;;;;;;;3.30;1.10;;;;;;;2.61;100.00;101412.48;104681;1258;73211;-58
2023/12/28 09:06:59;;;;;;;4.80;1.00;;;;;;;2.60;100.00;101405.73;104649;1261;60597;-54
2023/12/28 09:09:27;;;;;;;3.30;1.00;;;;;;;2.62;100.00;101405.40;104590;1261;60635;-54
2023/12/28 09:11:54;;;;;;;7.60;1.20;;;;;;;2.65;100.00;101396.89;104362;1261;73894;-54
2023/12/28 09:14:21;;;;;;;5.60;1.20;;;;;;;2.70;100.00;101396.79;104432;1257;67355;-57
2023/12/28 09:16:49;;;;;;;4.90;1.60;;;;;;;2.75;100.00;101400.20;104572;1257;71459;-55
2023/12/28 09:19:17;;;;;;;4.20;1.10;;;;;;;2.81;100.00;101408.94;104624;1257;60418;-57
2023/12/28 09:21:44;;;;;;;5.60;0.90;;;;;;;2.87;100.00;101405.64;108808;1257;58788;-56
2023/12/28 09:24:11;;;;;;;3.60;1.50;;;;;;;2.91;100.00;101411.70;105479;1257;74432;-53
2023/12/28 09:26:39;;;;;;;5.70;1.30;;;;;;;2.96;100.00;101397.02;104633;1257;65735;-57
2023/12/28 09:29:06;;;;;;;6.20;1.80;;;;;;;3.00;100.00;101389.97;108199;1257;71466;-55
2023/12/28 09:31:34;;;;;;;5.40;1.30;;;;;;;3.04;100.00;101398.70;104488;1257;60556;-55
2023/12/28 09:34:01;;;;;;;2.40;0.80;;;;;;;3.07;100.00;101396.06;108672;1256;60532;-60
2023/12/28 09:39:20;;;;;;;6.00;2.60;;;;;;;3.10;100.00;101463.64;102529;1286;601271;-53
2023/12/28 09:41:53;;;;;;;4.90;1.80;;;;;;;3.12;100.00;101483.55;103822;1267;59338;-58
2023/12/28 09:44:20;;;;;;;5.20;1.70;;;;;;;3.13;100.00;101463.52;108579;1260;60095;-56
2023/12/28 09:46:47;;;;;;;4.30;1.50;;;;;;;3.15;100.00;101444.02;108637;1260;72287;-56
2023/12/28 09:49:14;;;;;;;3.70;1.80;;;;;;;3.16;100.00;101432.48;108630;1258;66908;-59
2023/12/28 09:51:42;;;;;;;6.00;1.60;;;;;;;3.17;100.00;101417.41;108696;1260;71467;-56
2023/12/28 09:54:09;;;;;;;9.10;1.40;;;;;;;3.21;100.00;101412.66;106335;1257;211374;-56
2023/12/28 09:56:36;;;;;;;4.60;1.70;;;;;;;3.23;100.00;101411.98;104697;1258;59213;-55
2023/12/28 09:59:04;;;;;;;4.00;1.80;;;;;;;3.26;100.00;101410.04;104694;1260;70033;-56
2023/12/28 10:01:31;;;;;;;4.30;1.10;;;;;;;3.30;100.00;101403.52;104648;1257;65640;-59
2023/12/28 10:03:59;;;;;;;4.10;1.30;;;;;;;3.32;100.00;101404.95;104710;1260;70364;-57
2023/12/28 10:06:27;;;;;;;4.30;1.20;;;;;;;3.34;100.00;101397.50;105094;1257;59964;-57
2023/12/28 10:08:55;;;;;;;4.30;1.10;;;;;;;3.37;100.00;101383.34;104971;1266;59868;-58
2023/12/28 10:11:23;;;;;;;3.70;1.30;;;;;;;3.40;100.00;101379.45;104695;1263;71997;-57
2023/12/28 10:13:51;;;;;;;4.70;1.40;;;;;;;3.42;100.00;101373.77;104446;1264;66957;-56
2023/12/28 10:16:18;;;;;;;11.70;7.20;;;;;;;3.45;100.00;101363.87;104495;1263;72638;-59
2023/12/28 10:18:46;;;;;;;12.00;5.30;;;;;;;3.48;100.00;101360.88;104670;1257;59713;-55
2023/12/28 10:21:13;;;;;;;12.60;6.30;;;;;;;3.49;100.00;101362.45;105207;1260;59992;-54
2023/12/28 10:23:41;;;;;;;8.60;4.20;;;;;;;3.49;100.00;101362.83;104650;1260;73125;-56
2023/12/28 10:26:08;;;;;;;7.50;3.90;;;;;;;3.48;100.00;101355.91;104482;1258;65807;-57
2023/12/28 10:28:38;;;;;;;8.20;3.80;;;;;;;3.48;100.00;101350.77;104776;1263;73154;-57
2023/12/28 10:31:05;;;;;;;8.00;3.20;;;;;;;3.48;100.00;101342.61;104753;1258;59676;-57
2023/12/28 10:33:37;;;;;;;6.80;3.10;;;;;;;3.50;100.00;101339.40;104911;1260;59777;-55
2023/12/28 10:36:06;;;;;;;6.20;2.60;;;;;;;3.53;100.00;101336.57;104638;1262;73691;-55
2023/12/28 10:38:36;;;;;;;7.60;1.60;;;;;;;3.57;100.00;101329.69;105533;1263;65759;-55
2023/12/28 10:41:07;;;;;;;3.80;2.30;;;;;;;3.61;100.00;101328.45;104538;1261;71488;-58
2023/12/28 10:44:00;;;;;;;6.80;2.70;;;;;;;3.66;100.00;101325.11;105607;1261;59511;-60
2023/12/28 10:46:33;;;;;;;6.00;2.20;;;;;;;3.73;100.00;101334.02;105259;1258;60059;-58
2023/12/28 10:49:05;;;;;;;9.00;2.50;;;;;;;3.80;100.00;101328.73;104590;1258;75175;-58
2023/12/28 10:51:34;;;;;;;9.20;2.20;;;;;;;3.85;100.00;101319.50;104558;1263;65822;-57
2023/12/28 10:54:27;;;;;;;9.10;1.50;;;;;;;3.89;100.00;101306.39;104824;1257;72462;-58
2023/12/28 10:57:13;;;;;;;2.80;1.70;;;;;;;3.93;100.00;101318.11;104716;1263;59624;-57
2023/12/28 10:59:59;;;;;;;13.00;1.80;;;;;;;3.98;100.00;101320.63;104787;1262;60247;-57
2023/12/28 11:02:28;;;;;;;5.50;1.80;;;;;;;4.03;100.00;101322.41;104671;1266;73350;-56
2023/12/28 11:04:55;;;;;;;4.00;1.40;;;;;;;4.07;100.00;101316.04;104861;1263;66041;-57
2023/12/28 11:07:22;;;;;;;8.60;3.20;;;;;;;4.11;100.00;101314.98;104876;1257;71767;-57
2023/12/28 11:09:50;;;;;;;10.30;4.00;;;;;;;4.14;100.00;101313.39;104770;1258;61144;-57
2023/12/28 11:12:18;;;;;;;12.50;5.40;;;;;;;4.15;100.00;101303.10;104839;1258;59711;-57
2023/12/28 11:14:46;;;;;;;8.80;3.20;;;;;;;4.17;100.00;101297.77;104747;1258;70900;-59
2023/12/28 11:17:14;;;;;;;16.80;7.30;;;;;;;4.21;100.00;101295.98;104403;1262;66080;-57
2023/12/28 11:19:42;;;;;;;10.00;5.40;;;;;;;4.25;100.00;101292.63;104300;1263;74905;-57
2023/12/28 11:22:10;;;;;;;9.10;4.10;;;;;;;4.29;100.00;101286.41;104620;1263;59733;-58
2023/12/28 11:24:37;;;;;;;5.80;3.10;;;;;;;4.33;100.00;101281.80;104363;1261;59643;-58